»·PEaware :: DAL576 KSLC-KBUR

DAL576 :: KSLC-KBUR

FLIGHT INFORMATION

Flight Status: Arrived
Operator:
Delta Air Lines
More flights by this operator :: More flights under this callsign
Pilot: Anonymous 8274 (8274)
Aircraft: BOEING 737-200
(B732)
More flights by this aircraft type
Origin: KSLC Salt Lake City Intl
United States
Destination: KBUR Bob Hope-Burbank
United States
More flights between these airports :: More routes between these airports
Route: +FFU9 BCE J11 CORKR J76 LAS J9 DAG LYNNX8
File this flight plan on PilotEdge
Remarks:
Altitude:
(Current/Filed)
32,000ft
Speed:
(Current/Filed)
460kts
Departed: 07-Feb-19 08:44 PM
Arrived: 07-Feb-19 10:25 PM
Distance/Time
Traveled:
498nm/1:41
Distance/Time
To Go:
Arrived

Flight Plot

Page will automatically refresh every two minutes.

Flight plan parsing failed; only flown route is shown


Map Options




Map Legend


Flown Route
Filed Route
Departure Airport
Arrival Airport
Navaid (VOR, NDB)
Fix

Horizontal Profiles

Position Reports

Time Latitude Longitude Heading Altitude Ground
Speed
07-Feb-19 19:58 40.788267 -111.982034 103 4236ft 0kts
07-Feb-19 19:59 40.788267 -111.982035 103 4236ft 0kts
07-Feb-19 20:00 40.788267 -111.982035 103 4236ft 0kts
07-Feb-19 20:01 40.788267 -111.982035 103 4236ft 0kts
07-Feb-19 20:02 40.788267 -111.982035 103 4236ft 0kts
07-Feb-19 20:03 40.788267 -111.982035 103 4236ft 0kts
07-Feb-19 20:04 40.788267 -111.982035 103 4236ft 0kts
07-Feb-19 20:05 40.788267 -111.982035 103 4236ft 0kts
07-Feb-19 20:06 40.788267 -111.982035 103 4236ft 0kts
07-Feb-19 20:07 40.788267 -111.982035 103 4236ft 0kts
07-Feb-19 20:08 40.788267 -111.982035 103 4236ft 0kts
07-Feb-19 20:09 40.788267 -111.982035 103 4236ft 0kts
07-Feb-19 20:10 40.788267 -111.982035 103 4236ft 0kts
07-Feb-19 20:11 40.788267 -111.982035 103 4236ft 0kts
07-Feb-19 20:12 40.788267 -111.982035 103 4236ft 0kts
07-Feb-19 20:13 40.788267 -111.982035 103 4236ft 0kts
07-Feb-19 20:14 40.788267 -111.982035 103 4236ft 0kts
07-Feb-19 20:15 40.788267 -111.982035 103 4236ft 0kts
07-Feb-19 20:16 40.788267 -111.982035 103 4236ft 0kts
07-Feb-19 20:17 40.788267 -111.982035 103 4236ft 0kts
07-Feb-19 20:18 40.788267 -111.982035 103 4236ft 0kts
07-Feb-19 20:19 40.788267 -111.982035 103 4236ft 0kts
07-Feb-19 20:20 40.788267 -111.982035 103 4236ft 0kts
07-Feb-19 20:21 40.788267 -111.982035 103 4236ft 0kts
07-Feb-19 20:22 40.788313 -111.982301 103 4236ft 2kts
07-Feb-19 20:23 40.788208 -111.982927 20 4236ft 1kts
07-Feb-19 20:24 40.788127 -111.982952 13 4236ft 0kts
07-Feb-19 20:25 40.788127 -111.982952 13 4236ft 0kts
07-Feb-19 20:26 40.788127 -111.982952 13 4236ft 0kts
07-Feb-19 20:27 40.788127 -111.982952 13 4236ft 0kts
07-Feb-19 20:28 40.788127 -111.982952 13 4236ft 0kts
07-Feb-19 20:29 40.788127 -111.982952 13 4236ft 0kts
07-Feb-19 20:30 40.789578 -111.982708 18 4236ft 10kts
07-Feb-19 20:31 40.790215 -111.978797 84 4236ft 11kts
07-Feb-19 20:32 40.790226 -111.978622 85 4236ft 0kts
07-Feb-19 20:33 40.790226 -111.978622 85 4236ft 0kts
07-Feb-19 20:34 40.790226 -111.978622 85 4236ft 0kts
07-Feb-19 20:35 40.790226 -111.978622 85 4236ft 0kts
07-Feb-19 20:36 40.791043 -111.977200 352 4236ft 12kts
07-Feb-19 20:37 40.795623 -111.977694 353 4236ft 21kts
07-Feb-19 20:38 40.802612 -111.978444 9 4236ft 27kts
07-Feb-19 20:39 40.807167 -111.978475 35 4236ft 0kts
07-Feb-19 20:40 40.807167 -111.978475 35 4236ft 0kts
07-Feb-19 20:41 40.807167 -111.978475 35 4236ft 0kts
07-Feb-19 20:42 40.807283 -111.977248 123 4236ft 9kts
07-Feb-19 20:43 40.790703 -111.975028 174 4293ft 150kts
07-Feb-19 20:44 40.748790 -111.968277 171 5897ft 173kts
07-Feb-19 20:45 40.689971 -111.954424 171 7501ft 240kts
07-Feb-19 20:47 40.618156 -111.937892 171 9662ft 282kts
07-Feb-19 20:48 40.533545 -111.918858 171 11171ft 318kts
07-Feb-19 20:49 40.444814 -111.900215 171 13451ft 331kts
07-Feb-19 20:50 40.352887 -111.881322 171 15459ft 342kts
07-Feb-19 20:51 40.258376 -111.861877 170 17238ft 351kts
07-Feb-19 20:52 40.173897 -111.908394 230 18765ft 359kts
07-Feb-19 20:53 40.096051 -111.983706 181 20104ft 368kts
07-Feb-19 20:54 39.994465 -111.965237 171 21348ft 375kts
07-Feb-19 20:55 39.891982 -111.944583 176 22449ft 382kts
07-Feb-19 20:56 39.791132 -111.983732 200 23413ft 388kts
07-Feb-19 20:57 39.688104 -112.025546 178 24277ft 393kts
07-Feb-19 20:58 39.578887 -112.024160 180 25080ft 398kts
07-Feb-19 20:59 39.468141 -112.033965 185 25797ft 403kts
07-Feb-19 21:00 39.356146 -112.049254 186 26442ft 407kts
07-Feb-19 21:01 39.243802 -112.069191 188 27019ft 411kts
07-Feb-19 21:02 39.130119 -112.091434 186 27631ft 415kts
07-Feb-19 21:03 39.015154 -112.106593 185 28210ft 419kts
07-Feb-19 21:04 38.900362 -112.121569 185 29022ft 415kts
07-Feb-19 21:05 38.789546 -112.139122 190 29769ft 411kts
07-Feb-19 21:05 38.696737 -112.161731 190 30274ft 410kts
07-Feb-19 21:06 38.584804 -112.187786 187 30879ft 409kts
07-Feb-19 21:08 38.452204 -112.204789 184 31359ft 412kts
07-Feb-19 21:09 38.337841 -112.216887 184 31730ft 415kts
07-Feb-19 21:09 38.242196 -112.226964 184 32015ft 417kts
07-Feb-19 21:10 38.126449 -112.239108 184 32240ft 422kts
07-Feb-19 21:11 38.008703 -112.256484 187 32240ft 431kts
07-Feb-19 21:12 37.897415 -112.275539 187 32237ft 431kts
07-Feb-19 21:13 37.779537 -112.290917 184 32237ft 431kts
07-Feb-19 21:14 37.660334 -112.303212 184 32237ft 430kts
07-Feb-19 21:15 37.541539 -112.311745 183 32237ft 429kts
07-Feb-19 21:16 37.423092 -112.321206 183 32237ft 429kts
07-Feb-19 21:17 37.305051 -112.330153 182 32237ft 429kts
07-Feb-19 21:18 37.186038 -112.336958 182 32237ft 429kts
07-Feb-19 21:19 37.066980 -112.343704 182 32237ft 430kts
07-Feb-19 21:20 36.948235 -112.350379 182 32282ft 429kts
07-Feb-19 21:21 36.837490 -112.356558 182 32291ft 430kts
07-Feb-19 21:22 36.718860 -112.363125 182 32291ft 430kts
07-Feb-19 21:23 36.599510 -112.369679 182 32291ft 430kts
07-Feb-19 21:24 36.479823 -112.376199 182 32237ft 432kts
07-Feb-19 21:25 36.359983 -112.382673 182 32237ft 432kts
07-Feb-19 21:26 36.240467 -112.389078 182 32237ft 432kts
07-Feb-19 21:27 36.121034 -112.395425 182 32237ft 432kts
07-Feb-19 21:28 36.024638 -112.467039 246 32249ft 429kts
07-Feb-19 21:29 36.021837 -112.611886 277 32238ft 429kts
07-Feb-19 21:30 36.037262 -112.753358 277 32237ft 430kts
07-Feb-19 21:31 36.053295 -112.899466 277 32263ft 430kts
07-Feb-19 21:32 36.061622 -113.046415 271 32265ft 431kts
07-Feb-19 21:33 36.058091 -113.193911 266 32264ft 431kts
07-Feb-19 21:34 36.051555 -113.341929 267 32264ft 432kts
07-Feb-19 21:35 36.045145 -113.489291 267 32264ft 433kts
07-Feb-19 21:36 36.038793 -113.637560 267 32264ft 433kts
07-Feb-19 21:37 36.037980 -113.780950 271 32264ft 434kts
07-Feb-19 21:38 36.045904 -113.928838 275 32318ft 433kts
07-Feb-19 21:39 36.057424 -114.076927 277 32319ft 434kts
07-Feb-19 21:40 36.072457 -114.225044 277 32318ft 434kts
07-Feb-19 21:41 36.083262 -114.373456 273 32318ft 435kts
07-Feb-19 21:42 36.086777 -114.522647 270 32318ft 435kts
07-Feb-19 21:43 36.085630 -114.668202 267 32319ft 435kts
07-Feb-19 21:44 36.080058 -114.817674 267 32318ft 436kts
07-Feb-19 21:45 36.074582 -114.967102 267 32318ft 436kts
07-Feb-19 21:46 36.053030 -115.111811 233 32302ft 435kts
07-Feb-19 21:47 35.974268 -115.223582 234 32318ft 434kts
07-Feb-19 21:48 35.909852 -115.349517 241 32318ft 435kts
07-Feb-19 21:49 35.839429 -115.464219 224 32292ft 435kts
07-Feb-19 21:50 35.753397 -115.568911 225 32317ft 435kts
07-Feb-19 21:51 35.672333 -115.670565 225 32318ft 436kts
07-Feb-19 21:52 35.588265 -115.775933 225 32318ft 436kts
07-Feb-19 21:53 35.503477 -115.882125 225 32318ft 437kts
07-Feb-19 21:54 35.419185 -115.988703 227 32319ft 437kts
07-Feb-19 21:55 35.337149 -116.098701 227 32291ft 438kts
07-Feb-19 21:56 35.255288 -116.208424 227 32291ft 438kts
07-Feb-19 21:57 35.172645 -116.317229 225 32186ft 434kts
07-Feb-19 21:58 35.088749 -116.420285 222 29693ft 429kts
07-Feb-19 21:59 35.005339 -116.520477 227 27335ft 416kts
07-Feb-19 22:00 34.936537 -116.629755 249 25108ft 402kts
07-Feb-19 22:01 34.910662 -116.757026 258 24293ft 396kts
07-Feb-19 22:02 34.890850 -116.877303 258 24290ft 392kts
07-Feb-19 22:03 34.869998 -117.004159 258 24291ft 389kts
07-Feb-19 22:04 34.845604 -117.131935 251 24292ft 387kts
07-Feb-19 22:05 34.806613 -117.254934 248 24292ft 392kts
07-Feb-19 22:06 34.770158 -117.380400 250 24153ft 399kts
07-Feb-19 22:07 34.733680 -117.507605 251 23954ft 393kts
07-Feb-19 22:08 34.701381 -117.633169 253 21842ft 386kts
07-Feb-19 22:09 34.670978 -117.752636 252 20033ft 372kts
07-Feb-19 22:10 34.640959 -117.870702 252 18134ft 361kts
07-Feb-19 22:11 34.618361 -117.986177 268 16289ft 350kts
07-Feb-19 22:12 34.616378 -118.102356 268 14553ft 340kts
07-Feb-19 22:13 34.596449 -118.211654 254 12829ft 331kts
07-Feb-19 22:14 34.575428 -118.318563 254 11126ft 323kts
07-Feb-19 22:15 34.550881 -118.415936 238 10409ft 281kts
07-Feb-19 22:16 34.489581 -118.469852 212 8475ft 267kts
07-Feb-19 22:17 34.427896 -118.516520 211 6177ft 259kts
07-Feb-19 22:18 34.361655 -118.516944 172 4999ft 217kts
07-Feb-19 22:19 34.327125 -118.475226 116 4223ft 188kts
07-Feb-19 22:20 34.305729 -118.424104 117 3260ft 165kts
07-Feb-19 22:21 34.279392 -118.380216 157 2903ft 155kts
07-Feb-19 22:22 34.240318 -118.367994 168 1718ft 144kts
07-Feb-19 22:23 34.202816 -118.357821 168 739ft 115kts
07-Feb-19 22:24 34.195984 -118.355339 348 739ft 0kts
07-Feb-19 22:25 34.195984 -118.355339 348 739ft 0kts
07-Feb-19 22:26 34.197214 -118.355273 89 739ft 8kts
07-Feb-19 22:27 34.197002 -118.351978 170 739ft 5kts

Navigation Log

Ident Type
Flight plan parsing failed, navigation log unavailable